Impacts METAR Board INFO
IDs:

KBWI - Baltimore-Washington, MD, US

Updated at: 2024 UTC 18 Dec 2017
Potential Impact None Slight Moderate High
Time18/08Z 18/09Z 18/10Z 18/11Z 18/12Z 18/13Z 18/14Z 18/15Z 18/16Z 18/17Z 18/18Z 18/19Z 18/20Z
VIS8 8 7 7 7 8 6 8 10 10 10 10 10
CIG50 50 48 48 45 -- 160 55 55 55 250 250 250
CoverOVCOVCOVCBKNBKNSCTBKNBKNBKNBKNBKNBKNBKN
FltCatVFRVFRVFRVFRVFRVFRVFRVFRVFRVFRVFRVFRVFR
WX------------HZ------------
WDir0000003002502202902400240
WSpd0 0 0 0 0 0 3 4 3 3 5 0 6
WGst-- -- -- -- -- -- -- -- -- -- -- -- --
Raw hourly METARs
KBWI 180754Z 00000KT 8SM OVC050 04/01 A3012 RMK AO2 SLP199 T00390011
KBWI 180854Z 00000KT 8SM BKN050 OVC065 04/02 A3011 RMK AO2 SLP195 T00390017 56012
KBWI 180954Z 00000KT 7SM BKN048 OVC065 03/02 A3011 RMK AO2 SLP198 T00330017
KBWI 181054Z 00000KT 7SM BKN048 BKN065 03/01 A3012 RMK AO2 SLP199 T00330011
KBWI 181154Z 00000KT 7SM BKN045 BKN060 02/01 A3012 RMK AO2 SLP201 T00220011 10039 20022 51006
KBWI 181254Z 00000KT 8SM SCT045 SCT060 SCT160 SCT250 01/01 A3012 RMK AO2 SLP200 T00110006
KBWI 181354Z 30003KT 6SM HZ FEW044 SCT060 BKN160 BKN250 05/01 A3013 RMK AO2 SLP202 T00500011
KBWI 181454Z 25004KT 8SM BKN055 BKN160 BKN250 07/02 A3013 RMK AO2 SLP201 T00670022 53000
KBWI 181554Z 22003KT 10SM BKN055 BKN160 BKN250 09/02 A3010 RMK AO2 SLP193 T00890022
KBWI 181654Z 29003KT 10SM BKN055 BKN160 BKN250 10/02 A3005 RMK AO2 SLP176 T01000022
KBWI 181754Z 24005KT 10SM SCT050 SCT160 BKN250 12/02 A3002 RMK AO2 SLP165 T01170022 10117 20011 58036
KBWI 181854Z 00000KT 10SM FEW060 FEW160 BKN250 12/02 A3000 RMK AO2 SLP160 T01220022
KBWI 181954Z 24006KT 10SM SCT065 SCT160 BKN250 13/03 A2999 RMK AO2 SLP155 T01330028